TimePST,TemperatureF,Dew PointF,Humidity,Sea Level PressureIn,VisibilityMPH,Wind Direction,Wind SpeedMPH,Gust SpeedMPH,PrecipitationIn,Events,Conditions,WindDirDegrees,DateUTC
12:25 AM,42.8,28.4,57,30.07,10.0,NNW,6.9,-,N/A,,Mostly Cloudy,340,2013-01-12 08:25:00
1:51 AM,42.1,30.9,65,30.09,10.0,WNW,4.6,-,N/A,,Overcast,290,2013-01-12 09:51:00
2:51 AM,42.1,30.9,65,30.09,10.0,NE,6.9,-,N/A,,Overcast,40,2013-01-12 10:51:00
4:51 AM,42.1,27.0,55,30.08,10.0,NNW,9.2,-,N/A,,Clear,340,2013-01-12 12:51:00
5:51 AM,41.0,25.0,53,30.11,10.0,North,9.2,-,N/A,,Clear,350,2013-01-12 13:51:00
6:51 AM,39.9,25.0,55,30.13,10.0,North,10.4,-,N/A,,Clear,360,2013-01-12 14:51:00
7:51 AM,41.0,27.0,57,30.14,10.0,NE,5.8,-,N/A,,Clear,40,2013-01-12 15:51:00
8:51 AM,44.1,28.0,53,30.15,10.0,ENE,4.6,-,N/A,,Clear,60,2013-01-12 16:51:00
9:51 AM,46.0,26.1,46,30.16,10.0,Variable,3.5,-,N/A,,Clear,0,2013-01-12 17:51:00
10:51 AM,46.9,25.0,42,30.15,10.0,ENE,5.8,-,N/A,,Clear,60,2013-01-12 18:51:00
11:51 AM,46.9,32.0,56,30.13,10.0,NE,5.8,-,N/A,,Clear,40,2013-01-12 19:51:00
12:51 PM,48.0,34.0,58,30.11,10.0,Variable,4.6,-,N/A,,Clear,0,2013-01-12 20:51:00
1:51 PM,48.0,34.0,58,30.10,10.0,Calm,Calm,-,N/A,,Mostly Cloudy,0,2013-01-12 21:51:00
2:51 PM,48.0,34.0,58,30.10,10.0,Calm,Calm,-,N/A,,Partly Cloudy,0,2013-01-12 22:51:00
3:51 PM,45.0,28.0,52,30.11,10.0,Variable,3.5,-,N/A,,Clear,0,2013-01-12 23:51:00
4:51 PM,44.1,28.9,55,30.11,10.0,WSW,5.8,-,N/A,,Clear,250,2013-01-13 00:51:00
5:51 PM,42.1,27.0,55,30.12,10.0,West,6.9,-,N/A,,Clear,260,2013-01-13 01:51:00
6:51 PM,42.1,25.0,51,30.12,10.0,West,5.8,-,N/A,,Clear,280,2013-01-13 02:51:00
7:51 PM,42.1,23.0,47,30.12,10.0,NW,5.8,-,N/A,,Clear,320,2013-01-13 03:51:00
8:51 PM,42.1,24.1,49,30.12,10.0,North,5.8,-,N/A,,Clear,350,2013-01-13 04:51:00
9:51 PM,43.0,24.1,47,30.11,10.0,Calm,Calm,-,N/A,,Clear,0,2013-01-13 05:51:00
10:51 PM,43.0,25.0,49,30.11,10.0,Calm,Calm,-,N/A,,Clear,0,2013-01-13 06:51:00
11:51 PM,43.0,27.0,53,30.10,10.0,Calm,Calm,-,N/A,,Clear,0,2013-01-13 07:51:00